DAAY

Mecheria Airport

Mecheria, Algeria
METAR DAAY 192000Z 16020KT 5000 FEW026 17/06 Q1016
Observed Flight Rules
Oct-19 @ 20:00 UTC (27 minutes ago) Marginal Visual Flight Rules
Wind Visibility Clouds
160° at 20 knots 5,005 meters
  • Few at 2,600' AGL
Temperatures Readings
Current 17°C / 63°F
Dewpoint 6°C / 43°F
Humidity 49%
Altimeter 30" Hg
Pressure 1016 hPa
Elevation 1149
METAR DAAY 192000Z 16020KT 5000 FEW026 17/06 Q1016
Observed Flight Rules
Oct-19 @ 20:00 UTC
(27 minutes ago)
MVFR
Wind Visibility
160° at 20 knots 5,005 meters
Clouds
  • Few at 2,600' AGL
Temperature Dewpoint
17°C / 63°F 6°C / 43°F
Humidity Altimeter Pressure
49% 30" Hg 1016 hPa